sensor_id;sensor_type;location;lat;lon;timestamp;temperature;humidity
21616;DHT22;10970;48.714;9.584;2023-05-16T00:01:48;9.40;99.90
21616;DHT22;10970;48.714;9.584;2023-05-16T00:04:14;9.40;99.90
21616;DHT22;10970;48.714;9.584;2023-05-16T00:06:39;9.40;99.90
21616;DHT22;10970;48.714;9.584;2023-05-16T00:09:05;9.40;99.90
21616;DHT22;10970;48.714;9.584;2023-05-16T00:11:31;9.40;99.90
21616;DHT22;10970;48.714;9.584;2023-05-16T00:13:57;9.30;99.90
21616;DHT22;10970;48.714;9.584;2023-05-16T00:16:23;9.30;99.90
21616;DHT22;10970;48.714;9.584;2023-05-16T00:18:50;9.30;99.90
21616;DHT22;10970;48.714;9.584;2023-05-16T00:21:17;9.20;99.90
21616;DHT22;10970;48.714;9.584;2023-05-16T00:23:42;9.20;99.90
21616;DHT22;10970;48.714;9.584;2023-05-16T00:26:08;9.20;99.90
21616;DHT22;10970;48.714;9.584;2023-05-16T00:28:34;9.20;99.90
21616;DHT22;10970;48.714;9.584;2023-05-16T00:31:00;9.20;99.90
21616;DHT22;10970;48.714;9.584;2023-05-16T00:33:26;9.10;99.90
21616;DHT22;10970;48.714;9.584;2023-05-16T00:35:51;9.10;99.90
21616;DHT22;10970;48.714;9.584;2023-05-16T00:38:18;9.00;99.90
21616;DHT22;10970;48.714;9.584;2023-05-16T00:40:44;9.00;99.90
21616;DHT22;10970;48.714;9.584;2023-05-16T00:43:11;9.00;99.90
21616;DHT22;10970;48.714;9.584;2023-05-16T00:45:36;9.00;99.90
21616;DHT22;10970;48.714;9.584;2023-05-16T00:48:02;9.00;99.90
21616;DHT22;10970;48.714;9.584;2023-05-16T00:50:28;9.00;99.90
21616;DHT22;10970;48.714;9.584;2023-05-16T00:52:54;9.00;99.90
21616;DHT22;10970;48.714;9.584;2023-05-16T00:55:20;9.00;99.90
21616;DHT22;10970;48.714;9.584;2023-05-16T00:57:45;9.00;99.90
21616;DHT22;10970;48.714;9.584;2023-05-16T01:00:11;9.00;99.90
21616;DHT22;10970;48.714;9.584;2023-05-16T01:02:39;9.00;99.90
21616;DHT22;10970;48.714;9.584;2023-05-16T01:05:06;9.00;99.90
21616;DHT22;10970;48.714;9.584;2023-05-16T01:07:33;9.00;99.90
21616;DHT22;10970;48.714;9.584;2023-05-16T01:09:59;8.90;99.90
21616;DHT22;10970;48.714;9.584;2023-05-16T01:12:47;8.80;99.90
21616;DHT22;10970;48.714;9.584;2023-05-16T01:15:23;8.80;99.90
21616;DHT22;10970;48.714;9.584;2023-05-16T01:18:11;8.70;99.90
21616;DHT22;10970;48.714;9.584;2023-05-16T01:26:29;8.70;99.90
21616;DHT22;10970;48.714;9.584;2023-05-16T01:28:56;8.70;99.90
21616;DHT22;10970;48.714;9.584;2023-05-16T01:31:23;8.70;99.90
21616;DHT22;10970;48.714;9.584;2023-05-16T01:33:49;8.60;99.90
21616;DHT22;10970;48.714;9.584;2023-05-16T01:39:04;8.50;99.90
21616;DHT22;10970;48.714;9.584;2023-05-16T01:41:53;8.50;99.90
21616;DHT22;10970;48.714;9.584;2023-05-16T01:44:28;8.50;99.90
21616;DHT22;10970;48.714;9.584;2023-05-16T01:46:58;8.40;99.90
21616;DHT22;10970;48.714;9.584;2023-05-16T01:52:15;8.40;99.90
21616;DHT22;10970;48.714;9.584;2023-05-16T01:54:44;8.40;99.90
21616;DHT22;10970;48.714;9.584;2023-05-16T01:57:13;8.40;99.90
21616;DHT22;10970;48.714;9.584;2023-05-16T01:59:40;8.40;99.90
21616;DHT22;10970;48.714;9.584;2023-05-16T02:02:07;8.40;99.90
21616;DHT22;10970;48.714;9.584;2023-05-16T02:04:33;8.40;99.90
21616;DHT22;10970;48.714;9.584;2023-05-16T02:06:59;8.40;99.90
21616;DHT22;10970;48.714;9.584;2023-05-16T02:09:26;8.40;99.90
21616;DHT22;10970;48.714;9.584;2023-05-16T02:11:52;8.40;99.90
21616;DHT22;10970;48.714;9.584;2023-05-16T02:14:18;8.30;99.90
21616;DHT22;10970;48.714;9.584;2023-05-16T02:16:43;8.30;99.90
21616;DHT22;10970;48.714;9.584;2023-05-16T02:19:09;8.20;99.90
21616;DHT22;10970;48.714;9.584;2023-05-16T02:21:35;8.20;99.90
21616;DHT22;10970;48.714;9.584;2023-05-16T02:24:00;8.10;99.90
21616;DHT22;10970;48.714;9.584;2023-05-16T02:26:26;8.10;99.90
21616;DHT22;10970;48.714;9.584;2023-05-16T02:28:52;8.10;99.90
21616;DHT22;10970;48.714;9.584;2023-05-16T02:31:32;8.00;99.90
21616;DHT22;10970;48.714;9.584;2023-05-16T02:33:59;8.00;99.90
21616;DHT22;10970;48.714;9.584;2023-05-16T02:36:25;8.00;99.90
21616;DHT22;10970;48.714;9.584;2023-05-16T02:38:50;8.00;99.90
21616;DHT22;10970;48.714;9.584;2023-05-16T02:41:16;8.00;99.90
21616;DHT22;10970;48.714;9.584;2023-05-16T02:43:42;8.10;99.90
21616;DHT22;10970;48.714;9.584;2023-05-16T02:48:50;8.10;99.90
21616;DHT22;10970;48.714;9.584;2023-05-16T02:51:16;8.10;99.90
21616;DHT22;10970;48.714;9.584;2023-05-16T02:53:42;8.10;99.90
21616;DHT22;10970;48.714;9.584;2023-05-16T02:56:08;8.10;99.90
21616;DHT22;10970;48.714;9.584;2023-05-16T02:58:34;8.10;99.90
21616;DHT22;10970;48.714;9.584;2023-05-16T03:01:00;8.10;99.90
21616;DHT22;10970;48.714;9.584;2023-05-16T03:03:26;8.10;99.90
21616;DHT22;10970;48.714;9.584;2023-05-16T03:05:52;8.20;99.90
21616;DHT22;10970;48.714;9.584;2023-05-16T03:08:17;8.30;99.90
21616;DHT22;10970;48.714;9.584;2023-05-16T03:10:43;8.30;99.90
21616;DHT22;10970;48.714;9.584;2023-05-16T03:13:08;8.40;99.90
21616;DHT22;10970;48.714;9.584;2023-05-16T03:15:34;8.50;99.90
21616;DHT22;10970;48.714;9.584;2023-05-16T03:18:00;8.60;99.90
21616;DHT22;10970;48.714;9.584;2023-05-16T03:20:25;8.70;99.90
21616;DHT22;10970;48.714;9.584;2023-05-16T03:22:51;8.70;99.90
21616;DHT22;10970;48.714;9.584;2023-05-16T03:25:17;8.70;99.90
21616;DHT22;10970;48.714;9.584;2023-05-16T03:27:42;8.80;99.90
21616;DHT22;10970;48.714;9.584;2023-05-16T03:30:08;8.80;99.90
21616;DHT22;10970;48.714;9.584;2023-05-16T03:32:34;8.80;99.90
21616;DHT22;10970;48.714;9.584;2023-05-16T03:34:59;8.90;99.90
21616;DHT22;10970;48.714;9.584;2023-05-16T03:37:25;8.90;99.90
21616;DHT22;10970;48.714;9.584;2023-05-16T03:39:51;8.90;99.90
21616;DHT22;10970;48.714;9.584;2023-05-16T03:42:17;8.90;99.90
21616;DHT22;10970;48.714;9.584;2023-05-16T03:44:43;8.90;99.90
21616;DHT22;10970;48.714;9.584;2023-05-16T03:47:09;9.00;99.90
21616;DHT22;10970;48.714;9.584;2023-05-16T03:49:34;9.00;99.90
21616;DHT22;10970;48.714;9.584;2023-05-16T03:52:02;9.10;99.90
21616;DHT22;10970;48.714;9.584;2023-05-16T03:54:28;9.10;99.90
21616;DHT22;10970;48.714;9.584;2023-05-16T03:56:53;9.20;99.90
21616;DHT22;10970;48.714;9.584;2023-05-16T03:59:19;9.10;99.90
21616;DHT22;10970;48.714;9.584;2023-05-16T04:01:46;9.20;99.90
21616;DHT22;10970;48.714;9.584;2023-05-16T04:04:12;9.20;99.90
21616;DHT22;10970;48.714;9.584;2023-05-16T04:06:38;9.30;99.90
21616;DHT22;10970;48.714;9.584;2023-05-16T04:09:04;9.30;99.90
21616;DHT22;10970;48.714;9.584;2023-05-16T04:11:34;9.40;99.90
21616;DHT22;10970;48.714;9.584;2023-05-16T04:14:00;9.40;99.90
21616;DHT22;10970;48.714;9.584;2023-05-16T04:16:26;9.40;99.90
21616;DHT22;10970;48.714;9.584;2023-05-16T04:18:52;9.40;99.90
21616;DHT22;10970;48.714;9.584;2023-05-16T04:21:17;9.50;99.90
21616;DHT22;10970;48.714;9.584;2023-05-16T04:23:43;9.50;99.90
21616;DHT22;10970;48.714;9.584;2023-05-16T04:26:09;9.50;99.90
21616;DHT22;10970;48.714;9.584;2023-05-16T04:28:34;9.50;99.90
21616;DHT22;10970;48.714;9.584;2023-05-16T04:31:00;9.50;99.90
21616;DHT22;10970;48.714;9.584;2023-05-16T04:33:26;9.60;99.90
21616;DHT22;10970;48.714;9.584;2023-05-16T04:35:52;9.60;99.90
21616;DHT22;10970;48.714;9.584;2023-05-16T04:38:19;9.60;99.90
21616;DHT22;10970;48.714;9.584;2023-05-16T04:40:45;9.60;99.90
21616;DHT22;10970;48.714;9.584;2023-05-16T04:43:11;9.70;99.90
21616;DHT22;10970;48.714;9.584;2023-05-16T04:45:36;9.80;99.90
21616;DHT22;10970;48.714;9.584;2023-05-16T04:48:02;9.80;99.90
21616;DHT22;10970;48.714;9.584;2023-05-16T04:50:28;9.90;99.90
21616;DHT22;10970;48.714;9.584;2023-05-16T04:52:54;9.90;99.90
21616;DHT22;10970;48.714;9.584;2023-05-16T04:55:19;10.00;99.90
21616;DHT22;10970;48.714;9.584;2023-05-16T04:57:45;10.10;99.90
21616;DHT22;10970;48.714;9.584;2023-05-16T05:00:11;10.20;99.90
21616;DHT22;10970;48.714;9.584;2023-05-16T05:02:38;10.40;99.90
21616;DHT22;10970;48.714;9.584;2023-05-16T05:05:04;10.50;99.90
21616;DHT22;10970;48.714;9.584;2023-05-16T05:07:31;10.60;99.90
21616;DHT22;10970;48.714;9.584;2023-05-16T05:09:57;10.70;99.90
21616;DHT22;10970;48.714;9.584;2023-05-16T05:12:23;10.80;99.90
21616;DHT22;10970;48.714;9.584;2023-05-16T05:14:49;10.90;99.90
21616;DHT22;10970;48.714;9.584;2023-05-16T05:17:16;11.00;99.90
21616;DHT22;10970;48.714;9.584;2023-05-16T05:19:42;11.00;99.90
21616;DHT22;10970;48.714;9.584;2023-05-16T05:22:07;11.10;99.90
21616;DHT22;10970;48.714;9.584;2023-05-16T05:24:33;11.20;99.90
21616;DHT22;10970;48.714;9.584;2023-05-16T05:26:59;11.20;99.90
21616;DHT22;10970;48.714;9.584;2023-05-16T05:29:24;11.30;99.90
21616;DHT22;10970;48.714;9.584;2023-05-16T05:31:50;11.40;99.90
21616;DHT22;10970;48.714;9.584;2023-05-16T05:34:16;11.50;99.90
21616;DHT22;10970;48.714;9.584;2023-05-16T05:36:41;11.60;99.90
21616;DHT22;10970;48.714;9.584;2023-05-16T05:39:08;11.80;99.90
21616;DHT22;10970;48.714;9.584;2023-05-16T05:41:34;11.90;99.90
21616;DHT22;10970;48.714;9.584;2023-05-16T05:44:00;11.90;99.90
21616;DHT22;10970;48.714;9.584;2023-05-16T05:46:25;12.00;99.90
21616;DHT22;10970;48.714;9.584;2023-05-16T05:48:51;12.10;99.90
21616;DHT22;10970;48.714;9.584;2023-05-16T05:51:17;12.20;99.90
21616;DHT22;10970;48.714;9.584;2023-05-16T05:53:43;12.30;99.90
21616;DHT22;10970;48.714;9.584;2023-05-16T05:56:09;12.60;99.90
21616;DHT22;10970;48.714;9.584;2023-05-16T05:58:35;12.70;99.90
21616;DHT22;10970;48.714;9.584;2023-05-16T06:01:00;12.80;99.90
21616;DHT22;10970;48.714;9.584;2023-05-16T06:03:26;12.80;99.90
21616;DHT22;10970;48.714;9.584;2023-05-16T06:05:52;12.80;99.90
21616;DHT22;10970;48.714;9.584;2023-05-16T06:08:18;12.70;99.90
21616;DHT22;10970;48.714;9.584;2023-05-16T06:10:43;12.60;99.90
21616;DHT22;10970;48.714;9.584;2023-05-16T06:13:09;12.40;99.90
21616;DHT22;10970;48.714;9.584;2023-05-16T06:15:35;12.50;99.90
21616;DHT22;10970;48.714;9.584;2023-05-16T06:18:00;12.40;99.90
21616;DHT22;10970;48.714;9.584;2023-05-16T06:20:26;12.30;99.90
21616;DHT22;10970;48.714;9.584;2023-05-16T06:22:52;12.30;99.90
21616;DHT22;10970;48.714;9.584;2023-05-16T06:25:17;12.30;99.90
21616;DHT22;10970;48.714;9.584;2023-05-16T06:27:44;12.30;99.90
21616;DHT22;10970;48.714;9.584;2023-05-16T06:30:10;12.30;99.90
21616;DHT22;10970;48.714;9.584;2023-05-16T06:32:35;12.20;99.90
21616;DHT22;10970;48.714;9.584;2023-05-16T06:35:01;12.30;99.90
21616;DHT22;10970;48.714;9.584;2023-05-16T06:37:27;12.30;99.90
21616;DHT22;10970;48.714;9.584;2023-05-16T06:39:53;12.30;99.90
21616;DHT22;10970;48.714;9.584;2023-05-16T06:42:18;12.30;99.90
21616;DHT22;10970;48.714;9.584;2023-05-16T06:44:45;12.40;99.90
21616;DHT22;10970;48.714;9.584;2023-05-16T06:47:11;12.60;99.90
21616;DHT22;10970;48.714;9.584;2023-05-16T06:49:36;12.70;99.90
21616;DHT22;10970;48.714;9.584;2023-05-16T06:52:02;12.80;99.90
21616;DHT22;10970;48.714;9.584;2023-05-16T06:54:28;12.80;99.90
21616;DHT22;10970;48.714;9.584;2023-05-16T06:56:53;13.00;99.90
21616;DHT22;10970;48.714;9.584;2023-05-16T06:59:19;13.00;99.90
21616;DHT22;10970;48.714;9.584;2023-05-16T07:01:45;13.00;99.90
21616;DHT22;10970;48.714;9.584;2023-05-16T07:04:10;13.00;99.90
21616;DHT22;10970;48.714;9.584;2023-05-16T07:06:36;12.80;99.90
21616;DHT22;10970;48.714;9.584;2023-05-16T07:09:02;12.80;99.90
21616;DHT22;10970;48.714;9.584;2023-05-16T07:11:27;12.70;99.90
21616;DHT22;10970;48.714;9.584;2023-05-16T07:13:53;12.80;99.90
21616;DHT22;10970;48.714;9.584;2023-05-16T07:16:19;12.80;99.90
21616;DHT22;10970;48.714;9.584;2023-05-16T07:18:44;12.70;99.90
21616;DHT22;10970;48.714;9.584;2023-05-16T07:21:10;12.60;99.90
21616;DHT22;10970;48.714;9.584;2023-05-16T07:23:36;12.60;99.90
21616;DHT22;10970;48.714;9.584;2023-05-16T07:26:02;12.60;99.90
21616;DHT22;10970;48.714;9.584;2023-05-16T07:28:27;12.60;99.90
21616;DHT22;10970;48.714;9.584;2023-05-16T07:31:02;12.70;99.90
21616;DHT22;10970;48.714;9.584;2023-05-16T07:33:28;12.80;99.90
21616;DHT22;10970;48.714;9.584;2023-05-16T07:35:53;12.80;99.90
21616;DHT22;10970;48.714;9.584;2023-05-16T07:38:20;12.80;99.90
21616;DHT22;10970;48.714;9.584;2023-05-16T07:40:45;12.70;99.90
21616;DHT22;10970;48.714;9.584;2023-05-16T07:43:11;12.70;99.90
21616;DHT22;10970;48.714;9.584;2023-05-16T07:45:37;12.60;99.90
21616;DHT22;10970;48.714;9.584;2023-05-16T07:48:03;12.60;99.90
21616;DHT22;10970;48.714;9.584;2023-05-16T07:50:28;12.60;99.90
21616;DHT22;10970;48.714;9.584;2023-05-16T07:52:54;12.70;99.90
21616;DHT22;10970;48.714;9.584;2023-05-16T07:55:20;12.90;99.90
21616;DHT22;10970;48.714;9.584;2023-05-16T07:57:47;13.00;99.90
21616;DHT22;10970;48.714;9.584;2023-05-16T08:00:13;13.00;99.90
21616;DHT22;10970;48.714;9.584;2023-05-16T08:02:40;13.00;99.90
21616;DHT22;10970;48.714;9.584;2023-05-16T08:05:06;13.00;99.90
21616;DHT22;10970;48.714;9.584;2023-05-16T08:07:32;13.10;99.90
21616;DHT22;10970;48.714;9.584;2023-05-16T08:09:58;13.10;99.90
21616;DHT22;10970;48.714;9.584;2023-05-16T08:12:24;13.10;99.90
21616;DHT22;10970;48.714;9.584;2023-05-16T08:14:49;13.00;99.90
21616;DHT22;10970;48.714;9.584;2023-05-16T08:17:15;12.90;99.90
21616;DHT22;10970;48.714;9.584;2023-05-16T08:19:40;12.80;99.90
21616;DHT22;10970;48.714;9.584;2023-05-16T08:22:08;12.70;99.90
21616;DHT22;10970;48.714;9.584;2023-05-16T08:24:34;12.70;99.90
21616;DHT22;10970;48.714;9.584;2023-05-16T08:27:00;12.60;99.90
21616;DHT22;10970;48.714;9.584;2023-05-16T08:29:26;12.70;99.90
21616;DHT22;10970;48.714;9.584;2023-05-16T08:31:51;12.70;99.90
21616;DHT22;10970;48.714;9.584;2023-05-16T08:34:17;12.60;99.90
21616;DHT22;10970;48.714;9.584;2023-05-16T08:36:42;12.60;99.90
21616;DHT22;10970;48.714;9.584;2023-05-16T08:39:08;12.60;99.90
21616;DHT22;10970;48.714;9.584;2023-05-16T08:41:37;12.60;99.90
21616;DHT22;10970;48.714;9.584;2023-05-16T08:44:03;12.60;99.90
21616;DHT22;10970;48.714;9.584;2023-05-16T08:46:31;12.60;99.90
21616;DHT22;10970;48.714;9.584;2023-05-16T08:48:59;12.60;99.90
21616;DHT22;10970;48.714;9.584;2023-05-16T08:51:28;12.50;99.90
21616;DHT22;10970;48.714;9.584;2023-05-16T08:54:01;12.50;99.90
21616;DHT22;10970;48.714;9.584;2023-05-16T08:56:28;12.50;99.90
21616;DHT22;10970;48.714;9.584;2023-05-16T08:58:54;12.50;99.90
21616;DHT22;10970;48.714;9.584;2023-05-16T09:01:22;12.50;99.90
21616;DHT22;10970;48.714;9.584;2023-05-16T09:03:51;12.50;99.90
21616;DHT22;10970;48.714;9.584;2023-05-16T09:06:17;12.50;99.90
21616;DHT22;10970;48.714;9.584;2023-05-16T09:08:43;12.60;99.90
21616;DHT22;10970;48.714;9.584;2023-05-16T09:11:10;12.60;99.90
21616;DHT22;10970;48.714;9.584;2023-05-16T09:13:37;12.60;99.90
21616;DHT22;10970;48.714;9.584;2023-05-16T09:16:14;12.60;99.90
21616;DHT22;10970;48.714;9.584;2023-05-16T09:18:42;12.60;99.90
21616;DHT22;10970;48.714;9.584;2023-05-16T09:21:10;12.70;99.90
21616;DHT22;10970;48.714;9.584;2023-05-16T09:23:36;12.70;99.90
21616;DHT22;10970;48.714;9.584;2023-05-16T09:26:04;12.80;99.90
21616;DHT22;10970;48.714;9.584;2023-05-16T09:28:30;12.90;99.90
21616;DHT22;10970;48.714;9.584;2023-05-16T09:30:56;12.90;99.90
21616;DHT22;10970;48.714;9.584;2023-05-16T09:33:26;12.90;99.90
21616;DHT22;10970;48.714;9.584;2023-05-16T09:36:00;13.00;99.90
21616;DHT22;10970;48.714;9.584;2023-05-16T09:38:27;13.00;99.90
21616;DHT22;10970;48.714;9.584;2023-05-16T09:40:55;13.10;99.90
21616;DHT22;10970;48.714;9.584;2023-05-16T09:43:25;13.10;99.90
21616;DHT22;10970;48.714;9.584;2023-05-16T09:45:52;13.30;99.90
21616;DHT22;10970;48.714;9.584;2023-05-16T09:48:19;13.30;99.90
21616;DHT22;10970;48.714;9.584;2023-05-16T09:50:50;13.30;99.90
21616;DHT22;10970;48.714;9.584;2023-05-16T09:53:23;13.20;99.90
21616;DHT22;10970;48.714;9.584;2023-05-16T09:56:05;13.30;99.90
21616;DHT22;10970;48.714;9.584;2023-05-16T09:58:33;13.20;99.90
21616;DHT22;10970;48.714;9.584;2023-05-16T10:00:59;13.20;99.90
21616;DHT22;10970;48.714;9.584;2023-05-16T10:03:26;13.20;99.90
21616;DHT22;10970;48.714;9.584;2023-05-16T10:05:52;13.20;99.90
21616;DHT22;10970;48.714;9.584;2023-05-16T10:08:23;13.20;99.90
21616;DHT22;10970;48.714;9.584;2023-05-16T10:10:55;13.20;99.90
21616;DHT22;10970;48.714;9.584;2023-05-16T10:13:28;13.10;99.90
21616;DHT22;10970;48.714;9.584;2023-05-16T10:15:56;13.10;99.90
21616;DHT22;10970;48.714;9.584;2023-05-16T10:18:29;13.10;99.90
21616;DHT22;10970;48.714;9.584;2023-05-16T10:20:57;13.10;99.90
21616;DHT22;10970;48.714;9.584;2023-05-16T10:23:27;13.20;99.90
21616;DHT22;10970;48.714;9.584;2023-05-16T10:25:53;13.30;99.90
21616;DHT22;10970;48.714;9.584;2023-05-16T10:28:20;13.50;99.90
21616;DHT22;10970;48.714;9.584;2023-05-16T10:30:46;13.60;99.90
21616;DHT22;10970;48.714;9.584;2023-05-16T10:33:14;13.60;99.90
21616;DHT22;10970;48.714;9.584;2023-05-16T10:35:40;13.60;99.90
21616;DHT22;10970;48.714;9.584;2023-05-16T10:38:07;13.60;99.90
21616;DHT22;10970;48.714;9.584;2023-05-16T10:40:35;13.50;99.90
21616;DHT22;10970;48.714;9.584;2023-05-16T10:43:02;13.40;99.90
21616;DHT22;10970;48.714;9.584;2023-05-16T10:45:29;13.20;99.90
21616;DHT22;10970;48.714;9.584;2023-05-16T10:50:43;13.20;99.90
21616;DHT22;10970;48.714;9.584;2023-05-16T10:56:07;13.20;99.90
21616;DHT22;10970;48.714;9.584;2023-05-16T11:04:00;13.40;99.90
21616;DHT22;10970;48.714;9.584;2023-05-16T11:06:27;13.40;99.90
21616;DHT22;10970;48.714;9.584;2023-05-16T11:11:44;13.40;99.90
21616;DHT22;10970;48.714;9.584;2023-05-16T11:16:52;13.50;99.90
21616;DHT22;10970;48.714;9.584;2023-05-16T11:19:47;13.60;99.90
21616;DHT22;10970;48.714;9.584;2023-05-16T11:25:03;14.10;99.90
21616;DHT22;10970;48.714;9.584;2023-05-16T11:27:35;14.10;99.90
21616;DHT22;10970;48.714;9.584;2023-05-16T11:30:14;14.10;99.90
21616;DHT22;10970;48.714;9.584;2023-05-16T11:32:42;14.10;99.90
21616;DHT22;10970;48.714;9.584;2023-05-16T11:35:11;14.40;99.90
21616;DHT22;10970;48.714;9.584;2023-05-16T11:37:37;14.40;99.90
21616;DHT22;10970;48.714;9.584;2023-05-16T11:40:10;14.70;99.90
21616;DHT22;10970;48.714;9.584;2023-05-16T11:42:38;14.90;99.90
21616;DHT22;10970;48.714;9.584;2023-05-16T11:45:09;15.00;99.90
21616;DHT22;10970;48.714;9.584;2023-05-16T11:47:37;15.10;99.90
21616;DHT22;10970;48.714;9.584;2023-05-16T11:50:05;15.20;99.90
21616;DHT22;10970;48.714;9.584;2023-05-16T11:52:32;15.10;99.90
21616;DHT22;10970;48.714;9.584;2023-05-16T11:54:58;14.80;99.90
21616;DHT22;10970;48.714;9.584;2023-05-16T11:57:26;14.70;99.90
21616;DHT22;10970;48.714;9.584;2023-05-16T11:59:52;14.40;99.90
21616;DHT22;10970;48.714;9.584;2023-05-16T12:02:19;14.20;99.90
21616;DHT22;10970;48.714;9.584;2023-05-16T12:04:51;14.10;99.90
21616;DHT22;10970;48.714;9.584;2023-05-16T12:07:17;14.10;99.90
21616;DHT22;10970;48.714;9.584;2023-05-16T12:09:51;14.10;99.90
21616;DHT22;10970;48.714;9.584;2023-05-16T12:12:19;14.00;99.90
21616;DHT22;10970;48.714;9.584;2023-05-16T12:14:46;14.00;99.90
21616;DHT22;10970;48.714;9.584;2023-05-16T12:17:12;13.90;99.90
21616;DHT22;10970;48.714;9.584;2023-05-16T12:19:37;13.70;99.90
21616;DHT22;10970;48.714;9.584;2023-05-16T12:22:03;13.60;99.90
21616;DHT22;10970;48.714;9.584;2023-05-16T12:24:30;13.70;99.90
21616;DHT22;10970;48.714;9.584;2023-05-16T12:26:56;13.70;99.90
21616;DHT22;10970;48.714;9.584;2023-05-16T12:29:22;13.80;99.90
21616;DHT22;10970;48.714;9.584;2023-05-16T12:31:52;13.90;99.90
21616;DHT22;10970;48.714;9.584;2023-05-16T12:34:18;13.80;99.90
21616;DHT22;10970;48.714;9.584;2023-05-16T12:36:50;13.70;99.90
21616;DHT22;10970;48.714;9.584;2023-05-16T12:39:17;13.70;99.90
21616;DHT22;10970;48.714;9.584;2023-05-16T12:41:42;13.70;99.90
21616;DHT22;10970;48.714;9.584;2023-05-16T12:44:16;13.80;99.90
21616;DHT22;10970;48.714;9.584;2023-05-16T12:46:43;13.80;99.90
21616;DHT22;10970;48.714;9.584;2023-05-16T12:49:10;13.70;99.90
21616;DHT22;10970;48.714;9.584;2023-05-16T12:51:35;13.70;99.90
21616;DHT22;10970;48.714;9.584;2023-05-16T12:54:09;13.70;99.90
21616;DHT22;10970;48.714;9.584;2023-05-16T12:56:39;13.80;99.90
21616;DHT22;10970;48.714;9.584;2023-05-16T12:59:06;13.70;99.90
21616;DHT22;10970;48.714;9.584;2023-05-16T13:01:32;13.80;99.90
21616;DHT22;10970;48.714;9.584;2023-05-16T13:03:59;13.80;99.90
21616;DHT22;10970;48.714;9.584;2023-05-16T13:06:25;13.50;99.90
21616;DHT22;10970;48.714;9.584;2023-05-16T13:08:51;13.20;99.90
21616;DHT22;10970;48.714;9.584;2023-05-16T13:11:17;12.90;99.90
21616;DHT22;10970;48.714;9.584;2023-05-16T13:13:43;12.80;99.90
21616;DHT22;10970;48.714;9.584;2023-05-16T13:16:09;12.70;99.90
21616;DHT22;10970;48.714;9.584;2023-05-16T13:18:35;12.60;99.90
21616;DHT22;10970;48.714;9.584;2023-05-16T13:21:01;12.60;99.90
21616;DHT22;10970;48.714;9.584;2023-05-16T13:23:29;12.50;99.90
21616;DHT22;10970;48.714;9.584;2023-05-16T13:25:54;12.30;99.90
21616;DHT22;10970;48.714;9.584;2023-05-16T13:28:20;12.30;99.90
21616;DHT22;10970;48.714;9.584;2023-05-16T13:30:46;12.20;99.90
21616;DHT22;10970;48.714;9.584;2023-05-16T13:33:12;12.10;99.90
21616;DHT22;10970;48.714;9.584;2023-05-16T13:35:37;12.00;99.90
21616;DHT22;10970;48.714;9.584;2023-05-16T13:38:03;12.00;99.90
21616;DHT22;10970;48.714;9.584;2023-05-16T13:40:29;12.00;99.90
21616;DHT22;10970;48.714;9.584;2023-05-16T13:42:55;12.10;99.90
21616;DHT22;10970;48.714;9.584;2023-05-16T13:45:21;12.30;99.90
21616;DHT22;10970;48.714;9.584;2023-05-16T13:47:47;12.40;99.90
21616;DHT22;10970;48.714;9.584;2023-05-16T13:50:13;12.70;99.90
21616;DHT22;10970;48.714;9.584;2023-05-16T13:52:38;12.80;99.90
21616;DHT22;10970;48.714;9.584;2023-05-16T13:55:05;13.00;99.90
21616;DHT22;10970;48.714;9.584;2023-05-16T13:57:31;13.20;99.90
21616;DHT22;10970;48.714;9.584;2023-05-16T13:59:58;13.30;99.90
21616;DHT22;10970;48.714;9.584;2023-05-16T14:02:24;13.30;99.90
21616;DHT22;10970;48.714;9.584;2023-05-16T14:04:51;13.30;99.90
21616;DHT22;10970;48.714;9.584;2023-05-16T14:07:17;13.30;99.90
21616;DHT22;10970;48.714;9.584;2023-05-16T14:09:43;13.40;99.90
21616;DHT22;10970;48.714;9.584;2023-05-16T14:12:09;13.40;99.90
21616;DHT22;10970;48.714;9.584;2023-05-16T14:14:36;13.40;99.90
21616;DHT22;10970;48.714;9.584;2023-05-16T14:17:02;13.40;99.90
21616;DHT22;10970;48.714;9.584;2023-05-16T14:19:28;13.30;99.90
21616;DHT22;10970;48.714;9.584;2023-05-16T14:21:54;13.10;99.90
21616;DHT22;10970;48.714;9.584;2023-05-16T14:24:20;13.00;99.90
21616;DHT22;10970;48.714;9.584;2023-05-16T14:26:46;12.90;99.90
21616;DHT22;10970;48.714;9.584;2023-05-16T14:29:11;12.90;99.90
21616;DHT22;10970;48.714;9.584;2023-05-16T14:31:38;12.90;99.90
21616;DHT22;10970;48.714;9.584;2023-05-16T14:34:04;12.90;99.90
21616;DHT22;10970;48.714;9.584;2023-05-16T14:36:30;12.90;99.90
21616;DHT22;10970;48.714;9.584;2023-05-16T14:38:56;12.80;99.90
21616;DHT22;10970;48.714;9.584;2023-05-16T14:41:22;12.60;99.90
21616;DHT22;10970;48.714;9.584;2023-05-16T14:43:48;12.40;99.90
21616;DHT22;10970;48.714;9.584;2023-05-16T14:46:14;12.30;99.90
21616;DHT22;10970;48.714;9.584;2023-05-16T14:48:39;12.30;99.90
21616;DHT22;10970;48.714;9.584;2023-05-16T14:51:06;12.20;99.90
21616;DHT22;10970;48.714;9.584;2023-05-16T14:53:31;12.20;99.90
21616;DHT22;10970;48.714;9.584;2023-05-16T14:55:57;12.30;99.90
21616;DHT22;10970;48.714;9.584;2023-05-16T14:58:23;12.30;99.90
21616;DHT22;10970;48.714;9.584;2023-05-16T15:00:49;12.30;99.90
21616;DHT22;10970;48.714;9.584;2023-05-16T15:03:16;12.30;99.90
21616;DHT22;10970;48.714;9.584;2023-05-16T15:05:43;12.40;99.90
21616;DHT22;10970;48.714;9.584;2023-05-16T15:08:08;12.50;99.90
21616;DHT22;10970;48.714;9.584;2023-05-16T15:10:34;12.50;99.90
21616;DHT22;10970;48.714;9.584;2023-05-16T15:13:00;12.60;99.90
21616;DHT22;10970;48.714;9.584;2023-05-16T15:15:26;12.80;99.90
21616;DHT22;10970;48.714;9.584;2023-05-16T15:17:52;12.90;99.90
21616;DHT22;10970;48.714;9.584;2023-05-16T15:20:19;13.00;99.90
21616;DHT22;10970;48.714;9.584;2023-05-16T15:22:46;12.90;99.90
21616;DHT22;10970;48.714;9.584;2023-05-16T15:25:13;12.90;99.90
21616;DHT22;10970;48.714;9.584;2023-05-16T15:27:39;13.00;99.90
21616;DHT22;10970;48.714;9.584;2023-05-16T15:30:05;13.00;99.90
21616;DHT22;10970;48.714;9.584;2023-05-16T15:32:31;12.80;99.90
21616;DHT22;10970;48.714;9.584;2023-05-16T15:34:56;12.80;99.90
21616;DHT22;10970;48.714;9.584;2023-05-16T15:37:22;12.60;99.90
21616;DHT22;10970;48.714;9.584;2023-05-16T15:39:48;12.60;99.90
21616;DHT22;10970;48.714;9.584;2023-05-16T15:42:13;12.50;99.90
21616;DHT22;10970;48.714;9.584;2023-05-16T15:44:39;12.50;99.90
21616;DHT22;10970;48.714;9.584;2023-05-16T15:47:05;12.40;99.90
21616;DHT22;10970;48.714;9.584;2023-05-16T15:49:31;12.30;99.90
21616;DHT22;10970;48.714;9.584;2023-05-16T15:51:57;12.30;99.90
21616;DHT22;10970;48.714;9.584;2023-05-16T15:54:23;12.30;99.90
21616;DHT22;10970;48.714;9.584;2023-05-16T15:56:49;12.30;99.90
21616;DHT22;10970;48.714;9.584;2023-05-16T15:59:14;12.30;99.90
21616;DHT22;10970;48.714;9.584;2023-05-16T16:01:40;12.30;99.90
21616;DHT22;10970;48.714;9.584;2023-05-16T16:04:06;12.30;99.90
21616;DHT22;10970;48.714;9.584;2023-05-16T16:06:31;12.30;99.90